ダーウィン の空港の天気 - METARとTAF

ダーウィン国際空港 ( YPDN / DRW ) - オーストラリア ノーザンテリトリーダーウィン
飛行場実況気象(Metar)
観測時間08/14 14:30 ACST (08/14 05:00 UTC)
風向・風速北西 4m/s
視程10km以上
天気現象
全天の4割程度の雲 雲底高度 1280m
気温31℃
湿度52%
気圧1010hPa
METARYPDN 140500Z AUTO 32007KT 9999 // SCT042 31/20 Q1010 NOSIG
過去の天気等 Google飛行場航空写真 Wunderground天気予報

過去48時間のMETAR

飛行場予報(TAF)
発表時間: 8/14 09:01 ACST (8/13 23:31 UTC)
予報対象時間: 14日9時 ACST ~ 15日15時 ACST
風向・風速東北東 4m/s
視程10km以上
少しの雲 雲底高度 910m
14日12時 ACST から
風向・風速北西 5m/s
視程10km以上
少しの雲 雲底高度 1220m
14日20時 ACST から
風向・風速西 3m/s
視程10km以上
少しの雲 雲底高度 610m
15日1時 ACST から
風向・風速西 3m/s
視程10km以上
全天の4割程度の雲 雲底高度 550m
15日8時 ACST から
風向・風速東 4m/s
視程10km以上
全天の4割程度の雲 雲底高度 910m
TAF AMD YPDN 132331Z 1400/1506 06008KT 9999 FEW030
FM140300 31010KT 9999 FEW040
FM141100 28005KT 9999 FEW020
FM141600 28005KT 9999 SCT018
FM142300 10008KT 9999 SCT030